Observation data for Haskell on 04/24/2019      Previous  Date  Next       Current Mesonet Observations  Soil Data  Daily Summary Page  Observations in Plain Language
KHA1 240500Z 01006KT 15/13 A3002 RMK A01 T01480127  RH  091%=      5-min Rain = 0.01
KHA1 240505Z 36007KT 15/13 A3002 RMK A01 T01470126  RH  091%=      5-min Rain = 0.01
KHA1 240510Z 36005KT 15/13 A3002 RMK A01 T01470127  RH  091%=      5-min Rain = 0.02
KHA1 240515Z 01006KT 15/13 A3002 RMK A01 T01460128  RH  092%=      5-min Rain = 0.02
KHA1 240520Z 34006KT 15/13 A3003 RMK A01 T01460128  RH  092%=      5-min Rain = 0
KHA1 240525Z 32006KT 15/13 A3004 RMK A01 T01470129  RH  092%=      5-min Rain = 0.01
KHA1 240530Z 31009KT 15/13 A3004 RMK A01 T01470129  RH  093%=      5-min Rain = 0.01
KHA1 240535Z 32010KT 15/13 A3003 RMK A01 T01470130  RH  093%=      5-min Rain = 0.02
KHA1 240540Z 34009KT 15/13 A3002 RMK A01 T01460130  RH  094%=      5-min Rain = 0.03
KHA1 240545Z 04007KT 15/13 A30 RMK A01 T01450130  RH  095%=      5-min Rain = 0.02
KHA1 240550Z 07011G16KT 14/13 A2996 RMK A01 T01430130  RH  095%=      5-min Rain = 0.03
KHA1 240555Z 06011KT 14/13 A2995 RMK A01 T01420128  RH  095%=      5-min Rain = 0.01
KHA1 240600Z 06011G16KT 14/13 A2996 RMK A01 T01410127  RH  095%=      5-min Rain = 0
KHA1 240605Z 07009KT 14/13 A2995 RMK A01 T01420128  RH  095%=      5-min Rain = 0
KHA1 240610Z 07009KT 14/13 A2995 RMK A01 T01420128  RH  095%=      5-min Rain = 0
KHA1 240615Z 08009G14KT 14/13 A2994 RMK A01 T01430128  RH  095%=      5-min Rain = 0
KHA1 240620Z 08007KT 14/13 A2994 RMK A01 T01430128  RH  095%=      5-min Rain = 0
KHA1 240625Z 08010KT 14/13 A2993 RMK A01 T01420128  RH  095%=      5-min Rain = 0
KHA1 240630Z 08010KT 14/13 A2991 RMK A01 T01420128  RH  095%=      5-min Rain = 0.01
KHA1 240635Z 07010KT 14/13 A2991 RMK A01 T01410127  RH  095%=      5-min Rain = 0
KHA1 240640Z 06007KT 14/13 A2993 RMK A01 T01400126  RH  095%=      5-min Rain = 0
KHA1 240645Z 00010KT 14/13 A2995 RMK A01 T01410127  RH  095%=      5-min Rain = 0
KHA1 240650Z 00011KT 14/13 A2996 RMK A01 T01400127  RH  095%=      5-min Rain = 0
KHA1 240655Z 36012KT 14/13 A2996 RMK A01 T01400127  RH  095%=      5-min Rain = 0
KHA1 240700Z 04012KT 14/13 A2993 RMK A01 T01400126  RH  095%=      5-min Rain = 0
KHA1 240705Z 06012KT 14/13 A2992 RMK A01 T01400125  RH  094%=      5-min Rain = 0
KHA1 240710Z 04010KT 14/13 A2994 RMK A01 T01400126  RH  095%=      5-min Rain = 0
KHA1 240715Z 03008KT 14/13 A2996 RMK A01 T01410126  RH  095%=      5-min Rain = 0
KHA1 240720Z 02005KT 14/13 A2998 RMK A01 T01410126  RH  094%=      5-min Rain = 0
KHA1 240725Z 02005KT 14/13 A2998 RMK A01 T01420126  RH  094%=      5-min Rain = 0
KHA1 240730Z 03005KT 14/13 A2998 RMK A01 T01420127  RH  094%=      5-min Rain = 0
KHA1 240735Z 04004KT 14/13 A2998 RMK A01 T01430127  RH  094%=      5-min Rain = 0
KHA1 240740Z 05004KT 14/13 A2998 RMK A01 T01430127  RH  094%=      5-min Rain = 0
KHA1 240745Z 03006KT 14/13 A2998 RMK A01 T01430127  RH  094%=      5-min Rain = 0
KHA1 240750Z 04006KT 14/13 A2997 RMK A01 T01430127  RH  094%=      5-min Rain = 0
KHA1 240755Z 04006KT 14/13 A2996 RMK A01 T01430127  RH  094%=      5-min Rain = 0
KHA1 240800Z 06006KT 14/13 A2996 RMK A01 T01420125  RH  093%=      5-min Rain = 0
KHA1 240805Z 06006KT 14/13 A2996 RMK A01 T01410125  RH  093%=      5-min Rain = 0
KHA1 240810Z 05006KT 14/13 A2995 RMK A01 T01410125  RH  093%=      5-min Rain = 0
KHA1 240815Z 04007KT 14/13 A2995 RMK A01 T01410126  RH  094%=      5-min Rain = 0
KHA1 240820Z 04009KT 14/13 A2994 RMK A01 T01410126  RH  094%=      5-min Rain = 0
KHA1 240825Z 03009KT 14/13 A2994 RMK A01 T01410126  RH  094%=      5-min Rain = 0
KHA1 240830Z 03009KT 14/13 A2994 RMK A01 T01410126  RH  095%=      5-min Rain = 0
KHA1 240835Z 04009KT 14/13 A2994 RMK A01 T01410126  RH  094%=      5-min Rain = 0
KHA1 240840Z 04007KT 14/13 A2994 RMK A01 T01410126  RH  094%=      5-min Rain = 0
KHA1 240845Z 02006KT 14/13 A2995 RMK A01 T01410127  RH  095%=      5-min Rain = 0
KHA1 240850Z 02006KT 14/13 A2996 RMK A01 T01410127  RH  094%=      5-min Rain = 0
KHA1 240855Z 04007KT 14/13 A2995 RMK A01 T01410126  RH  094%=      5-min Rain = 0
KHA1 240900Z 04008KT 14/13 A2994 RMK A01 T01410127  RH  095%=      5-min Rain = 0
KHA1 240905Z 04009KT 14/13 A2994 RMK A01 T01410127  RH  095%=      5-min Rain = 0
KHA1 240910Z 02009KT 14/13 A2994 RMK A01 T01410127  RH  095%=      5-min Rain = 0
KHA1 240915Z 03011KT 14/13 A2992 RMK A01 T01400126  RH  095%=      5-min Rain = 0
KHA1 240920Z 01008KT 14/13 A2995 RMK A01 T01410126  RH  095%=      5-min Rain = 0
KHA1 240925Z 01007KT 14/13 A2995 RMK A01 T01400125  RH  094%=      5-min Rain = 0
KHA1 240930Z 02006KT 14/13 A2995 RMK A01 T01410126  RH  094%=      5-min Rain = 0
KHA1 240935Z 04006KT 14/13 A2994 RMK A01 T01410126  RH  094%=      5-min Rain = 0
KHA1 240940Z 03009KT 14/13 A2993 RMK A01 T01410127  RH  095%=      5-min Rain = 0
KHA1 240945Z 03011KT 14/13 A2993 RMK A01 T01410126  RH  094%=      5-min Rain = 0
KHA1 240950Z 03010KT 14/13 A2993 RMK A01 T01400125  RH  094%=      5-min Rain = 0
KHA1 240955Z 03011KT 14/13 A2992 RMK A01 T01400125  RH  094%=      5-min Rain = 0
KHA1 241000Z 02008KT 14/13 A2993 RMK A01 T01400125  RH  094%=      5-min Rain = 0
KHA1 241005Z 01008KT 14/13 A2994 RMK A01 T01400125  RH  094%=      5-min Rain = 0
KHA1 241010Z 01007KT 14/12 A2995 RMK A01 T01400124  RH  093%=      5-min Rain = 0
KHA1 241015Z 01006KT 14/12 A2995 RMK A01 T01400124  RH  093%=      5-min Rain = 0
KHA1 241020Z 03006KT 14/13 A2995 RMK A01 T01410125  RH  094%=      5-min Rain = 0
KHA1 241025Z 03006KT 14/13 A2995 RMK A01 T01410125  RH  094%=      5-min Rain = 0
KHA1 241030Z 02005KT 14/13 A2995 RMK A01 T01410125  RH  094%=      5-min Rain = 0
KHA1 241035Z 02006KT 14/12 A2995 RMK A01 T01410124  RH  093%=      5-min Rain = 0
KHA1 241040Z 02007KT 14/13 A2994 RMK A01 T01410125  RH  094%=      5-min Rain = 0
KHA1 241045Z 02008KT 14/13 A2993 RMK A01 T01410125  RH  094%=      5-min Rain = 0
KHA1 241050Z 02008KT 14/13 A2993 RMK A01 T01410126  RH  094%=      5-min Rain = 0
KHA1 241055Z 02008KT 14/13 A2992 RMK A01 T01410126  RH  094%=      5-min Rain = 0
KHA1 241100Z 00006KT 14/13 A2993 RMK A01 T01410126  RH  094%=      5-min Rain = 0
KHA1 241105Z 36006KT 14/13 A2993 RMK A01 T01410126  RH  094%=      5-min Rain = 0
KHA1 241110Z 01008KT 14/13 A2993 RMK A01 T01400125  RH  094%=      5-min Rain = 0
KHA1 241115Z 01007KT 14/13 A2993 RMK A01 T01400126  RH  095%=      5-min Rain = 0
KHA1 241120Z 02004KT 14/13 A2994 RMK A01 T01400126  RH  095%=      5-min Rain = 0
KHA1 241125Z 02004KT 14/13 A2994 RMK A01 T01400126  RH  095%=      5-min Rain = 0
KHA1 241130Z 01006KT 14/13 A2994 RMK A01 T01400125  RH  095%=      5-min Rain = 0
KHA1 241135Z 01006KT 14/13 A2994 RMK A01 T01400126  RH  095%=      5-min Rain = 0
KHA1 241140Z 01006KT 14/13 A2993 RMK A01 T01400126  RH  095%=      5-min Rain = 0
KHA1 241145Z 01005KT 14/13 A2993 RMK A01 T01400126  RH  095%=      5-min Rain = 0
KHA1 241150Z 01005KT 14/13 A2993 RMK A01 T01400126  RH  095%=      5-min Rain = 0
KHA1 241155Z 01007KT 14/13 A2994 RMK A01 T01390125  RH  095%=      5-min Rain = 0
KHA1 241200Z 02007KT 14/12 A2994 RMK A01 T01390124  RH  094%=      5-min Rain = 0
KHA1 241205Z 01007KT 14/13 A2994 RMK A01 T01390125  RH  094%=      5-min Rain = 0
KHA1 241210Z 00008KT 14/13 A2993 RMK A01 T01400126  RH  095%=      5-min Rain = 0
KHA1 241215Z 01008KT 14/13 A2993 RMK A01 T01390126  RH  095%=      5-min Rain = 0
KHA1 241220Z 01009KT 14/13 A2993 RMK A01 T01390125  RH  095%=      5-min Rain = 0
KHA1 241225Z 01009KT 14/13 A2992 RMK A01 T01390125  RH  095%=      5-min Rain = 0
KHA1 241230Z 00010KT 14/12 A2991 RMK A01 T01380124  RH  095%=      5-min Rain = 0
KHA1 241235Z 01010KT 14/12 A2991 RMK A01 T01380124  RH  095%=      5-min Rain = 0
KHA1 241240Z 00010KT 14/12 A2992 RMK A01 T01380124  RH  095%=      5-min Rain = 0
KHA1 241245Z 35009KT 14/13 A2993 RMK A01 T01390125  RH  095%=      5-min Rain = 0
KHA1 241250Z 35010KT 14/13 A2992 RMK A01 T01390125  RH  095%=      5-min Rain = 0
KHA1 241255Z 35011KT 14/13 A2993 RMK A01 T01380125  RH  095%=      5-min Rain = 0
KHA1 241300Z 35009KT 14/13 A2993 RMK A01 T01380125  RH  096%=      5-min Rain = 0
KHA1 241305Z 35010KT 14/13 A2994 RMK A01 T01380125  RH  095%=      5-min Rain = 0
KHA1 241310Z 35010KT 14/12 A2994 RMK A01 T01380124  RH  095%=      5-min Rain = 0
KHA1 241315Z 35009KT 14/13 A2994 RMK A01 T01380125  RH  095%=      5-min Rain = 0
KHA1 241320Z 35011KT 14/12 A2994 RMK A01 T01380124  RH  095%=      5-min Rain = 0
KHA1 241325Z 35011KT 14/12 A2993 RMK A01 T01370123  RH  095%=      5-min Rain = 0
KHA1 241330Z 36011KT 14/12 A2993 RMK A01 T01370123  RH  095%=      5-min Rain = 0
KHA1 241335Z 36011KT 14/12 A2993 RMK A01 T01370123  RH  095%=      5-min Rain = 0
KHA1 241340Z 36011KT 14/12 A2993 RMK A01 T01370122  RH  094%=      5-min Rain = 0
KHA1 241345Z 35010KT 14/12 A2992 RMK A01 T01370123  RH  095%=      5-min Rain = 0
KHA1 241350Z 35011KT 14/12 A2993 RMK A01 T01360123  RH  095%=      5-min Rain = 0
KHA1 241355Z 35011KT 14/12 A2993 RMK A01 T01360123  RH  095%=      5-min Rain = 0
KHA1 241400Z 35010KT 14/12 A2993 RMK A01 T01360123  RH  095%=      5-min Rain = 0
KHA1 241405Z 35010KT 14/12 A2994 RMK A01 T01360121  RH  094%=      5-min Rain = 0
KHA1 241410Z 35010KT 14/12 A2994 RMK A01 T01370122  RH  094%=      5-min Rain = 0
KHA1 241415Z 36010KT 14/12 A2994 RMK A01 T01370122  RH  094%=      5-min Rain = 0
KHA1 241420Z 00010KT 14/12 A2993 RMK A01 T01370122  RH  094%=      5-min Rain = 0
KHA1 241425Z 00012KT 14/12 A2993 RMK A01 T01370122  RH  094%=      5-min Rain = 0
KHA1 241430Z 00011KT 14/12 A2992 RMK A01 T01370122  RH  094%=      5-min Rain = 0
KHA1 241435Z 00012KT 14/12 A2992 RMK A01 T01370122  RH  094%=      5-min Rain = 0
KHA1 241440Z 01014KT 14/12 A2992 RMK A01 T01370120  RH  093%=      5-min Rain = 0
KHA1 241445Z 01013KT 14/12 A2991 RMK A01 T01380120  RH  092%=      5-min Rain = 0
KHA1 241450Z 00014KT 14/12 A2991 RMK A01 T01390122  RH  093%=      5-min Rain = 0
KHA1 241455Z 00014KT 14/12 A2991 RMK A01 T01400122  RH  092%=      5-min Rain = 0
KHA1 241500Z 00016KT 14/12 A2991 RMK A01 T01400122  RH  092%=      5-min Rain = 0
KHA1 241505Z 36016KT 14/12 A2991 RMK A01 T01400122  RH  092%=      5-min Rain = 0
KHA1 241510Z 35016KT 14/12 A2991 RMK A01 T01400122  RH  092%=      5-min Rain = 0
KHA1 241515Z 36016KT 14/12 A2991 RMK A01 T01390121  RH  092%=      5-min Rain = 0
KHA1 241520Z 36016KT 14/12 A2991 RMK A01 T01390120  RH  092%=      5-min Rain = 0
KHA1 241525Z 35015KT 14/12 A2992 RMK A01 T01390120  RH  092%=      5-min Rain = 0
KHA1 241530Z 35015KT 14/12 A2992 RMK A01 T01400121  RH  092%=      5-min Rain = 0
KHA1 241535Z 36014KT 14/12 A2993 RMK A01 T01400120  RH  091%=      5-min Rain = 0
KHA1 241540Z 36014G19KT 14/12 A2993 RMK A01 T01390119  RH  091%=      5-min Rain = 0
KHA1 241545Z 00011KT 14/12 A2995 RMK A01 T01390118  RH  091%=      5-min Rain = 0
KHA1 241550Z 02010KT 14/12 A2995 RMK A01 T01390117  RH  090%=      5-min Rain = 0
KHA1 241555Z 02008KT 14/12 A2996 RMK A01 T01400118  RH  090%=      5-min Rain = 0
KHA1 241600Z 02010KT 14/12 A2996 RMK A01 T01400118  RH  089%=      5-min Rain = 0
KHA1 241605Z 01011KT 14/12 A2995 RMK A01 T01410118  RH  089%=      5-min Rain = 0
KHA1 241610Z 01012KT 14/12 A2995 RMK A01 T01430119  RH  089%=      5-min Rain = 0
KHA1 241615Z 01013KT 14/12 A2994 RMK A01 T01440120  RH  089%=      5-min Rain = 0
KHA1 241620Z 01014KT 15/12 A2994 RMK A01 T01460120  RH  088%=      5-min Rain = 0
KHA1 241625Z 01013KT 15/12 A2994 RMK A01 T01460120  RH  087%=      5-min Rain = 0
KHA1 241630Z 02012KT 15/12 A2994 RMK A01 T01470121  RH  088%=      5-min Rain = 0
KHA1 241635Z 02013KT 15/12 A2994 RMK A01 T01480121  RH  087%=      5-min Rain = 0
KHA1 241640Z 03012KT 15/12 A2994 RMK A01 T01470120  RH  087%=      5-min Rain = 0
KHA1 241645Z 03012KT 15/12 A2995 RMK A01 T01470119  RH  087%=      5-min Rain = 0
KHA1 241650Z 03011KT 15/12 A2995 RMK A01 T01460120  RH  087%=      5-min Rain = 0
KHA1 241655Z 03010KT 15/12 A2995 RMK A01 T01460120  RH  088%=      5-min Rain = 0
KHA1 241700Z 03011KT 15/12 A2995 RMK A01 T01460117  RH  086%=      5-min Rain = 0
KHA1 241705Z 03011KT 15/12 A2995 RMK A01 T01450117  RH  086%=      5-min Rain = 0
KHA1 241710Z 02010KT 15/12 A2995 RMK A01 T01450117  RH  086%=      5-min Rain = 0
KHA1 241715Z 03011KT 15/12 A2995 RMK A01 T01450116  RH  086%=      5-min Rain = 0
KHA1 241720Z 03009KT 14/12 A2996 RMK A01 T01440117  RH  087%=      5-min Rain = 0
KHA1 241725Z 03009KT 14/12 A2996 RMK A01 T01430116  RH  087%=      5-min Rain = 0
KHA1 241730Z 03009KT 14/12 A2996 RMK A01 T01430115  RH  086%=      5-min Rain = 0
KHA1 241735Z 03009KT 14/12 A2996 RMK A01 T01430115  RH  087%=      5-min Rain = 0
KHA1 241740Z 02009KT 14/12 A2995 RMK A01 T01430116  RH  087%=      5-min Rain = 0
KHA1 241745Z 02009KT 14/12 A2995 RMK A01 T01430115  RH  087%=      5-min Rain = 0
KHA1 241750Z 02008KT 14/12 A2995 RMK A01 T01420115  RH  086%=      5-min Rain = 0
KHA1 241755Z 02008KT 14/12 A2995 RMK A01 T01430115  RH  086%=      5-min Rain = 0
KHA1 241800Z 03007KT 14/12 A2995 RMK A01 T01440115  RH  086%=      5-min Rain = 0
KHA1 241805Z 02006KT 14/12 A2995 RMK A01 T01440115  RH  086%=      5-min Rain = 0
KHA1 241810Z 01007KT 14/12 A2995 RMK A01 T01440117  RH  087%=      5-min Rain = 0
KHA1 241815Z 00008KT 14/11 A2995 RMK A01 T01440114  RH  085%=      5-min Rain = 0
KHA1 241820Z 36007KT 14/12 A2995 RMK A01 T01440115  RH  085%=      5-min Rain = 0
KHA1 241825Z 35006KT 15/11 A2994 RMK A01 T01450114  RH  085%=      5-min Rain = 0
KHA1 241830Z 00004KT 15/11 A2995 RMK A01 T01460114  RH  084%=      5-min Rain = 0
KHA1 241835Z 36003KT 15/11 A2994 RMK A01 T01460114  RH  084%=      5-min Rain = 0
KHA1 241840Z 34003KT 15/11 A2994 RMK A01 T01460113  RH  083%=      5-min Rain = 0
KHA1 241845Z 00003KT 15/11 A2994 RMK A01 T01470114  RH  083%=      5-min Rain = 0
KHA1 241850Z 33003KT 15/11 A2994 RMK A01 T01480113  RH  082%=      5-min Rain = 0
KHA1 241855Z 34003KT 15/11 A2994 RMK A01 T01490114  RH  082%=      5-min Rain = 0
KHA1 241900Z 34002KT 15/11 A2994 RMK A01 T01500112  RH  081%=      5-min Rain = 0
KHA1 241905Z 36002KT 15/11 A2994 RMK A01 T01510112  RH  081%=      5-min Rain = 0
KHA1 241910Z 34003KT 15/11 A2994 RMK A01 T01510113  RH  080%=      5-min Rain = 0
KHA1 241915Z 29002KT 15/11 A2994 RMK A01 T01520114  RH  081%=      5-min Rain = 0
KHA1 241920Z 26002KT 15/11 A2994 RMK A01 T01530113  RH  080%=      5-min Rain = 0
KHA1 241925Z 28003KT 15/11 A2994 RMK A01 T01530113  RH  080%=      5-min Rain = 0
KHA1 241930Z 27003KT 15/12 A2993 RMK A01 T01540117  RH  082%=      5-min Rain = 0
KHA1 241935Z 28002KT 15/12 A2994 RMK A01 T01540115  RH  080%=      5-min Rain = 0
KHA1 241940Z 26002KT 16/12 A2994 RMK A01 T01580119  RH  081%=      5-min Rain = 0
KHA1 241945Z 26002KT 16/12 A2994 RMK A01 T01560115  RH  079%=      5-min Rain = 0
KHA1 241950Z 28002KT 16/12 A2993 RMK A01 T01570116  RH  079%=      5-min Rain = 0
KHA1 241955Z 26002KT 16/12 A2993 RMK A01 T01580117  RH  080%=      5-min Rain = 0
KHA1 242000Z 33001KT 16/12 A2993 RMK A01 T01590119  RH  080%=      5-min Rain = 0
KHA1 242005Z 06000KT 16/12 A2994 RMK A01 T01620117  RH  077%=      5-min Rain = 0
KHA1 242010Z 20000KT 16/12 A2994 RMK A01 T01630117  RH  077%=      5-min Rain = 0
KHA1 242015Z 23001KT 16/12 A2994 RMK A01 T01610115  RH  077%=      5-min Rain = 0
KHA1 242020Z 16002KT 16/11 A2993 RMK A01 T01580114  RH  078%=      5-min Rain = 0
KHA1 242025Z 15003KT 16/12 A2993 RMK A01 T01580115  RH  079%=      5-min Rain = 0
KHA1 242030Z 10001KT 16/11 A2993 RMK A01 T01600114  RH  077%=      5-min Rain = 0
KHA1 242035Z 28002KT 16/12 A2993 RMK A01 T01620118  RH  078%=      5-min Rain = 0
KHA1 242040Z 26001KT 16/12 A2993 RMK A01 T01620116  RH  077%=      5-min Rain = 0
KHA1 242045Z 23002KT 16/12 A2993 RMK A01 T01630117  RH  077%=      5-min Rain = 0
KHA1 242050Z 26002KT 16/12 A2993 RMK A01 T01620118  RH  078%=      5-min Rain = 0
KHA1 242055Z 24002KT 16/12 A2993 RMK A01 T01630118  RH  078%=      5-min Rain = 0
KHA1 242100Z 24001KT 16/11 A2993 RMK A01 T01620113  RH  076%=      5-min Rain = 0
KHA1 242105Z 23001KT 16/12 A2993 RMK A01 T01620116  RH  077%=      5-min Rain = 0
KHA1 242110Z 25003KT 16/12 A2992 RMK A01 T01610118  RH  078%=      5-min Rain = 0
KHA1 242115Z 22003KT 16/12 A2992 RMK A01 T01600121  RH  080%=      5-min Rain = 0
KHA1 242120Z 26001KT 16/12 A2991 RMK A01 T01610120  RH  080%=      5-min Rain = 0
KHA1 242125Z 19002KT 16/12 A2991 RMK A01 T01630121  RH  079%=      5-min Rain = 0
KHA1 242130Z 18002KT 16/12 A2991 RMK A01 T01620116  RH  077%=      5-min Rain = 0
KHA1 242135Z 16001KT 16/12 A2991 RMK A01 T01640118  RH  077%=      5-min Rain = 0
KHA1 242140Z 17001KT 16/12 A299 RMK A01 T01620115  RH  076%=      5-min Rain = 0
KHA1 242145Z 20001KT 16/12 A299 RMK A01 T01630116  RH  077%=      5-min Rain = 0
KHA1 242150Z 19001KT 17/12 A299 RMK A01 T01650119  RH  077%=      5-min Rain = 0
KHA1 242155Z 24001KT 17/12 A299 RMK A01 T01660120  RH  077%=      5-min Rain = 0
KHA1 242200Z 25004KT 17/12 A299 RMK A01 T01650119  RH  077%=      5-min Rain = 0
KHA1 242205Z 28003KT 17/12 A2989 RMK A01 T01650117  RH  076%=      5-min Rain = 0
KHA1 242210Z 27004KT 17/12 A2988 RMK A01 T01650118  RH  077%=      5-min Rain = 0
KHA1 242215Z 24002KT 17/12 A2988 RMK A01 T01660120  RH  077%=      5-min Rain = 0
KHA1 242220Z 21002KT 17/12 A2988 RMK A01 T01660121  RH  078%=      5-min Rain = 0
KHA1 242225Z 21003KT 17/12 A2988 RMK A01 T01650118  RH  076%=      5-min Rain = 0
KHA1 242230Z 08001KT 17/12 A2988 RMK A01 T01670122  RH  077%=      5-min Rain = 0
KHA1 242235Z 00001KT 17/12 A2987 RMK A01 T01680116  RH  074%=      5-min Rain = 0
KHA1 242240Z 35001KT 17/12 A2987 RMK A01 T01670115  RH  074%=      5-min Rain = 0
KHA1 242245Z 00002KT 17/12 A2986 RMK A01 T01670117  RH  075%=      5-min Rain = 0
KHA1 242250Z 03001KT 17/11 A2986 RMK A01 T01660114  RH  074%=      5-min Rain = 0
KHA1 242255Z 36001KT 17/12 A2986 RMK A01 T01670115  RH  074%=      5-min Rain = 0
KHA1 242300Z 33002KT 17/12 A2985 RMK A01 T01680121  RH  077%=      5-min Rain = 0
KHA1 242305Z 31003KT 17/12 A2985 RMK A01 T01670121  RH  077%=      5-min Rain = 0
KHA1 242310Z 28003KT 17/12 A2985 RMK A01 T01650117  RH  076%=      5-min Rain = 0
KHA1 242315Z 25002KT 16/12 A2985 RMK A01 T01640119  RH  077%=      5-min Rain = 0
KHA1 242320Z 23001KT 16/12 A2985 RMK A01 T01630118  RH  077%=      5-min Rain = 0
KHA1 242325Z 19000KT 16/12 A2985 RMK A01 T01640120  RH  078%=      5-min Rain = 0
KHA1 242330Z 21000KT 16/12 A2985 RMK A01 T01640122  RH  079%=      5-min Rain = 0
KHA1 242335Z 24002KT 16/12 A2985 RMK A01 T01630120  RH  079%=      5-min Rain = 0
KHA1 242340Z 24001KT 16/12 A2985 RMK A01 T01620117  RH  078%=      5-min Rain = 0
KHA1 242345Z 27001KT 16/12 A2985 RMK A01 T01620117  RH  077%=      5-min Rain = 0
KHA1 242350Z 30001KT 16/12 A2985 RMK A01 T01630118  RH  078%=      5-min Rain = 0
KHA1 242355Z 25001KT 16/12 A2985 RMK A01 T01630121  RH  080%=      5-min Rain = 0
KHA1 250000Z 24002KT 16/13 A2985 RMK A01 T01600126  RH  084%=      5-min Rain = 0
KHA1 250005Z 23001KT 16/12 A2985 RMK A01 T01590122  RH  082%=      5-min Rain = 0
KHA1 250010Z 23001KT 16/13 A2985 RMK A01 T01590126  RH  084%=      5-min Rain = 0
KHA1 250015Z 30001KT 16/12 A2984 RMK A01 T01600124  RH  083%=      5-min Rain = 0
KHA1 250020Z 30002KT 16/12 A2984 RMK A01 T01620118  RH  078%=      5-min Rain = 0
KHA1 250025Z 31002KT 16/12 A2984 RMK A01 T01620121  RH  079%=      5-min Rain = 0
KHA1 250030Z 31002KT 16/12 A2984 RMK A01 T01620122  RH  080%=      5-min Rain = 0
KHA1 250035Z 31003KT 16/12 A2984 RMK A01 T01620124  RH  082%=      5-min Rain = 0
KHA1 250040Z 30003KT 16/12 A2984 RMK A01 T01610123  RH  081%=      5-min Rain = 0
KHA1 250045Z 29003KT 16/13 A2984 RMK A01 T01610125  RH  082%=      5-min Rain = 0
KHA1 250050Z 29002KT 16/13 A2984 RMK A01 T01610125  RH  082%=      5-min Rain = 0
KHA1 250055Z 31003KT 16/13 A2984 RMK A01 T01610125  RH  083%=      5-min Rain = 0
KHA1 250100Z 29003KT 16/13 A2985 RMK A01 T01610127  RH  084%=      5-min Rain = 0
KHA1 250105Z 28002KT 16/13 A2984 RMK A01 T01600127  RH  084%=      5-min Rain = 0
KHA1 250110Z 28003KT 16/13 A2984 RMK A01 T01570127  RH  086%=      5-min Rain = 0
KHA1 250115Z 27003KT 15/13 A2984 RMK A01 T01540128  RH  088%=      5-min Rain = 0
KHA1 250120Z 26004KT 15/13 A2984 RMK A01 T01520128  RH  089%=      5-min Rain = 0
KHA1 250125Z 23004KT 15/13 A2985 RMK A01 T01500127  RH  090%=      5-min Rain = 0
KHA1 250130Z 22004KT 15/13 A2985 RMK A01 T01490127  RH  090%=      5-min Rain = 0
KHA1 250135Z 23005KT 15/13 A2985 RMK A01 T01480126  RH  090%=      5-min Rain = 0
KHA1 250140Z 22005KT 15/13 A2985 RMK A01 T01480126  RH  090%=      5-min Rain = 0
KHA1 250145Z 22006KT 15/13 A2985 RMK A01 T01480127  RH  091%=      5-min Rain = 0
KHA1 250150Z 22006KT 15/13 A2985 RMK A01 T01470128  RH  092%=      5-min Rain = 0
KHA1 250155Z 23006KT 15/13 A2985 RMK A01 T01460127  RH  092%=      5-min Rain = 0
KHA1 250200Z 23006KT 15/13 A2985 RMK A01 T01460127  RH  092%=      5-min Rain = 0
KHA1 250205Z 23006KT 15/13 A2986 RMK A01 T01460127  RH  092%=      5-min Rain = 0
KHA1 250210Z 22006KT 15/13 A2986 RMK A01 T01450127  RH  092%=      5-min Rain = 0
KHA1 250215Z 21006KT 14/13 A2986 RMK A01 T01440127  RH  093%=      5-min Rain = 0
KHA1 250220Z 21006KT 14/13 A2986 RMK A01 T01440127  RH  093%=      5-min Rain = 0
KHA1 250225Z 21006KT 14/13 A2986 RMK A01 T01430127  RH  093%=      5-min Rain = 0
KHA1 250230Z 21006KT 14/13 A2986 RMK A01 T01430127  RH  093%=      5-min Rain = 0
KHA1 250235Z 20006KT 14/13 A2986 RMK A01 T01430127  RH  093%=      5-min Rain = 0
KHA1 250240Z 20006KT 14/13 A2987 RMK A01 T01430126  RH  093%=      5-min Rain = 0
KHA1 250245Z 19006KT 14/13 A2987 RMK A01 T01420126  RH  093%=      5-min Rain = 0
KHA1 250250Z 19006KT 14/13 A2987 RMK A01 T01420126  RH  093%=      5-min Rain = 0
KHA1 250255Z 18005KT 14/13 A2987 RMK A01 T01430126  RH  093%=      5-min Rain = 0
KHA1 250300Z 17005KT 14/13 A2987 RMK A01 T01440126  RH  092%=      5-min Rain = 0
KHA1 250305Z 17005KT 14/13 A2987 RMK A01 T01440125  RH  092%=      5-min Rain = 0
KHA1 250310Z 17005KT 14/13 A2988 RMK A01 T01440125  RH  092%=      5-min Rain = 0
KHA1 250315Z 18005KT 14/13 A2988 RMK A01 T01440125  RH  092%=      5-min Rain = 0
KHA1 250320Z 18006KT 14/12 A2988 RMK A01 T01430124  RH  092%=      5-min Rain = 0
KHA1 250325Z 18006KT 14/12 A2988 RMK A01 T01420124  RH  092%=      5-min Rain = 0
KHA1 250330Z 18005KT 14/12 A2988 RMK A01 T01420124  RH  093%=      5-min Rain = 0
KHA1 250335Z 18006KT 14/12 A2988 RMK A01 T01420124  RH  093%=      5-min Rain = 0
KHA1 250340Z 18006KT 14/13 A2988 RMK A01 T01410125  RH  093%=      5-min Rain = 0
KHA1 250345Z 18005KT 14/12 A2988 RMK A01 T01410124  RH  093%=      5-min Rain = 0
KHA1 250350Z 18005KT 14/12 A2988 RMK A01 T01400124  RH  093%=      5-min Rain = 0
KHA1 250355Z 19006KT 14/12 A2988 RMK A01 T01390124  RH  094%=      5-min Rain = 0
KHA1 250400Z 20006KT 14/12 A2988 RMK A01 T01380123  RH  094%=      5-min Rain = 0
KHA1 250405Z 20006KT 14/12 A2988 RMK A01 T01370123  RH  094%=      5-min Rain = 0
KHA1 250410Z 20006KT 14/12 A2987 RMK A01 T01370122  RH  094%=      5-min Rain = 0
KHA1 250415Z 20005KT 14/12 A2987 RMK A01 T01360122  RH  095%=      5-min Rain = 0
KHA1 250420Z 21004KT 14/12 A2987 RMK A01 T01350122  RH  095%=      5-min Rain = 0
KHA1 250425Z 21004KT 13/12 A2987 RMK A01 T01340122  RH  096%=      5-min Rain = 0
KHA1 250430Z 22004KT 13/12 A2987 RMK A01 T01340121  RH  096%=      5-min Rain = 0
KHA1 250435Z 22005KT 13/12 A2987 RMK A01 T01330121  RH  096%=      5-min Rain = 0
KHA1 250440Z 22005KT 13/12 A2987 RMK A01 T01330121  RH  096%=      5-min Rain = 0
KHA1 250445Z 23005KT 13/12 A2987 RMK A01 T01320120  RH  096%=      5-min Rain = 0
KHA1 250450Z 23005KT 13/12 A2987 RMK A01 T01310120  RH  096%=      5-min Rain = 0
KHA1 250455Z 23005KT 13/12 A2986 RMK A01 T01310120  RH  096%=      5-min Rain = 0

Page generated in 0.0175 seconds.